Time;durP1;ratioP1;P1;durP2;ratioP2;P2;SDS_P1;SDS_P2;PMS_P1;PMS_P2;Temp;Humidity;BMP_temperature;BMP_pressure;BME280_temperature;BME280_humidity;BME280_pressure;Samples;Min_cycle;Max_cycle;Signal;HPM_P1;HPM_P2
2022/06/17 00:01:49;;;;;;;8.18;5.30;;;;;;;;;;6188237;22;20020;-67
2022/06/17 00:04:16;;;;;;;7.70;5.50;;;;;;;;;;6199285;23;20032;-67
2022/06/17 00:06:46;;;;;;;6.25;5.13;;;;;;;;;;6200115;23;20513;-68
2022/06/17 00:09:14;;;;;;;7.38;5.88;;;;;;;;;;6189540;22;20408;-67
2022/06/17 00:11:40;;;;;;;8.27;5.60;;;;;;;;;;6195361;23;20394;-67
2022/06/17 00:14:17;;;;;;;7.25;5.65;;;;;;;;;;6188083;22;20115;-67
2022/06/17 00:16:44;;;;;;;9.18;5.60;;;;;;;;;;6200934;23;20059;-67
2022/06/17 00:19:11;;;;;;;9.52;6.22;;;;;;;;;;6192807;23;20027;-67
2022/06/17 00:21:39;;;;;;;11.25;5.85;;;;;;;;;;6199135;23;20444;-67
2022/06/17 00:24:06;;;;;;;;;;;;;;;;;;6199532;23;20035;-67
2022/06/17 00:26:32;;;;;;;12.20;5.18;;;;;;;;;;6186609;23;19920;-66
2022/06/17 00:28:58;;;;;;;11.13;5.38;;;;;;;;;;6192852;23;20465;-66
2022/06/17 00:31:25;;;;;;;9.25;6.40;;;;;;;;;;6189948;22;20123;-66
2022/06/17 00:33:51;;;;;;;7.90;6.07;;;;;;;;;;6198567;23;20095;-67
2022/06/17 00:36:18;;;;;;;8.38;6.50;;;;;;;;;;6189742;23;20046;-66
2022/06/17 00:38:45;;;;;;;9.77;6.20;;;;;;;;;;6198184;23;20432;-66
2022/06/17 00:41:23;;;;;;;8.23;6.13;;;;;;;;;;6193744;23;20111;-67
2022/06/17 00:43:50;;;;;;;11.93;6.65;;;;;;;;;;6190577;23;20139;-67
2022/06/17 00:46:33;;;;;;;11.32;6.32;;;;;;;;;;6202049;23;20103;-67
2022/06/17 00:49:17;;;;;;;8.18;5.85;;;;;;;;;;6192418;23;20028;-67
2022/06/17 00:51:58;;;;;;;8.57;6.35;;;;;;;;;;6201696;23;20025;-66
2022/06/17 00:54:30;;;;;;;9.48;6.55;;;;;;;;;;6186523;23;20047;-68
2022/06/17 00:56:57;;;;;;;11.82;6.15;;;;;;;;;;6196430;23;20123;-67
2022/06/17 00:59:23;;;;;;;9.15;6.40;;;;;;;;;;6191362;23;20104;-67
2022/06/17 01:01:53;;;;;;;9.45;6.30;;;;;;;;;;6201939;23;20135;-67
2022/06/17 01:04:31;;;;;;;11.00;6.47;;;;;;;;;;6202437;23;20048;-67
2022/06/17 01:07:07;;;;;;;10.23;6.80;;;;;;;;;;6190986;22;20021;-67
2022/06/17 01:12:21;;;;;;;9.07;6.22;;;;;;;;;;6191465;23;20035;-67
2022/06/17 01:14:48;;;;;;;7.13;6.05;;;;;;;;;;6202160;23;20108;-67
2022/06/17 01:17:16;;;;;;;13.20;6.43;;;;;;;;;;6191740;23;20154;-67
2022/06/17 01:19:47;;;;;;;11.05;6.38;;;;;;;;;;6198984;23;20498;-68
2022/06/17 01:22:16;;;;;;;9.07;6.05;;;;;;;;;;6194342;23;20024;-65
2022/06/17 01:24:43;;;;;;;9.55;6.18;;;;;;;;;;6191059;23;20359;-67
2022/06/17 01:27:10;;;;;;;9.90;6.90;;;;;;;;;;6202039;23;20624;-67
2022/06/17 01:29:36;;;;;;;8.50;6.68;;;;;;;;;;6191304;23;20032;-66
2022/06/17 01:32:03;;;;;;;9.25;6.80;;;;;;;;;;6202412;23;20021;-67
2022/06/17 01:34:29;;;;;;;11.35;6.97;;;;;;;;;;6185468;23;20027;-67
2022/06/17 01:36:56;;;;;;;9.13;6.10;;;;;;;;;;6195529;23;20021;-67
2022/06/17 01:39:29;;;;;;;8.63;6.63;;;;;;;;;;6197265;22;20108;-66
2022/06/17 01:41:56;;;;;;;10.18;6.55;;;;;;;;;;6196923;23;20382;-66
2022/06/17 01:44:25;;;;;;;10.88;6.40;;;;;;;;;;6201630;23;20517;-67
2022/06/17 01:47:12;;;;;;;9.27;6.10;;;;;;;;;;6195251;23;20025;-67
2022/06/17 01:49:41;;;;;;;14.60;6.53;;;;;;;;;;6193174;23;20094;-66
2022/06/17 01:52:10;;;;;;;11.07;6.70;;;;;;;;;;6193552;23;20029;-68
2022/06/17 01:54:40;;;;;;;10.77;7.00;;;;;;;;;;6202276;23;20388;-67
2022/06/17 01:57:08;;;;;;;11.48;6.50;;;;;;;;;;6192574;23;20782;-66
2022/06/17 01:59:43;;;;;;;8.93;6.53;;;;;;;;;;6200359;23;20537;-66
2022/06/17 02:02:11;;;;;;;7.90;6.45;;;;;;;;;;6195969;23;20092;-66
2022/06/17 02:04:39;;;;;;;9.10;7.20;;;;;;;;;;6185336;22;20480;-67
2022/06/17 02:07:10;;;;;;;9.18;6.03;;;;;;;;;;6201153;23;20060;-67
2022/06/17 02:09:36;;;;;;;11.00;7.00;;;;;;;;;;6191552;23;20021;-67
2022/06/17 02:12:03;;;;;;;8.82;7.18;;;;;;;;;;6201994;23;20082;-66
2022/06/17 02:14:29;;;;;;;12.43;7.13;;;;;;;;;;6194246;23;20020;-66
2022/06/17 02:16:56;;;;;;;10.65;7.20;;;;;;;;;;6195403;23;20020;-66
2022/06/17 02:19:24;;;;;;;7.85;6.70;;;;;;;;;;6196855;23;20024;-66
2022/06/17 02:21:53;;;;;;;13.25;7.53;;;;;;;;;;6194889;23;20522;-66
2022/06/17 02:24:19;;;;;;;10.75;6.80;;;;;;;;;;6201998;23;20365;-66
2022/06/17 02:26:46;;;;;;;9.82;6.38;;;;;;;;;;6192222;23;20103;-67
2022/06/17 02:29:13;;;;;;;9.73;7.20;;;;;;;;;;6199527;23;20123;-67
2022/06/17 02:31:41;;;;;;;7.97;6.82;;;;;;;;;;6193735;23;20369;-66
2022/06/17 02:34:09;;;;;;;8.93;7.28;;;;;;;;;;6190664;23;20035;-66
2022/06/17 02:36:36;;;;;;;;;;;;;;;;;;6202466;23;20657;-66
2022/06/17 02:39:03;;;;;;;8.00;7.20;;;;;;;;;;6191823;23;19920;-67
2022/06/17 02:41:30;;;;;;;8.55;6.88;;;;;;;;;;6201388;23;20409;-67
2022/06/17 02:43:56;;;;;;;10.10;7.32;;;;;;;;;;6159374;23;20103;-67
2022/06/17 02:46:34;;;;;;;8.23;7.35;;;;;;;;;;6195310;23;20024;-67
2022/06/17 02:49:03;;;;;;;9.95;7.03;;;;;;;;;;6201740;23;20021;-66
2022/06/17 02:51:31;;;;;;;8.20;7.30;;;;;;;;;;6190362;23;20605;-66
2022/06/17 02:53:58;;;;;;;11.18;6.82;;;;;;;;;;6203138;23;20056;-67
2022/06/17 02:56:26;;;;;;;9.88;7.55;;;;;;;;;;6190984;23;20111;-67
2022/06/17 02:59:05;;;;;;;8.63;6.75;;;;;;;;;;6196676;23;20020;-67
2022/06/17 03:01:34;;;;;;;10.05;7.50;;;;;;;;;;6189176;23;20032;-66
2022/06/17 03:04:00;;;;;;;10.23;7.45;;;;;;;;;;6202007;23;20123;-66
2022/06/17 03:06:31;;;;;;;9.05;6.95;;;;;;;;;;6201090;23;20036;-67
2022/06/17 03:08:59;;;;;;;10.30;6.93;;;;;;;;;;6192024;23;20381;-66
2022/06/17 03:11:25;;;;;;;9.40;6.97;;;;;;;;;;6194954;23;20108;-66
2022/06/17 03:13:54;;;;;;;12.10;8.45;;;;;;;;;;6185902;23;20571;-67
2022/06/17 03:16:20;;;;;;;;;;;;;;;;;;6201892;23;20167;-67
2022/06/17 03:18:48;;;;;;;10.63;7.53;;;;;;;;;;6190756;23;20400;-66
2022/06/17 03:21:17;;;;;;;11.32;8.25;;;;;;;;;;6201368;23;20124;-67
2022/06/17 03:24:01;;;;;;;10.05;7.82;;;;;;;;;;6201707;23;20024;-67
2022/06/17 03:26:30;;;;;;;11.15;8.52;;;;;;;;;;6193538;23;20033;-67
2022/06/17 03:28:58;;;;;;;10.98;8.75;;;;;;;;;;6197905;23;20035;-66
2022/06/17 03:31:31;;;;;;;9.68;7.80;;;;;;;;;;6190604;23;20025;-66
2022/06/17 03:34:00;;;;;;;13.68;8.60;;;;;;;;;;6200662;23;20028;-67
2022/06/17 03:36:44;;;;;;;10.23;8.30;;;;;;;;;;6190977;23;20521;-67
2022/06/17 03:39:34;;;;;;;8.95;7.88;;;;;;;;;;6194747;23;20059;-67
2022/06/17 03:42:02;;;;;;;11.52;9.10;;;;;;;;;;6173301;22;20698;-67
2022/06/17 03:44:28;;;;;;;;;;;;;;;;;;6201817;23;20044;-67
2022/06/17 03:47:04;;;;;;;11.48;9.05;;;;;;;;;;6203681;23;19946;-67
2022/06/17 03:49:41;;;;;;;10.95;8.63;;;;;;;;;;6196839;23;20103;-67
2022/06/17 03:52:24;;;;;;;14.82;9.63;;;;;;;;;;6203821;23;20024;-66
2022/06/17 03:54:51;;;;;;;11.07;9.43;;;;;;;;;;6184239;23;20346;-66
2022/06/17 03:57:17;;;;;;;16.08;9.15;;;;;;;;;;6201309;23;20027;-66
2022/06/17 03:59:45;;;;;;;13.20;8.57;;;;;;;;;;6192489;23;20038;-67
2022/06/17 04:02:13;;;;;;;16.60;8.18;;;;;;;;;;6203247;23;20375;-66
2022/06/17 04:04:42;;;;;;;11.27;8.57;;;;;;;;;;6192785;23;20031;-66
2022/06/17 04:07:09;;;;;;;11.73;8.75;;;;;;;;;;6196249;23;20077;-66
2022/06/17 04:09:38;;;;;;;10.15;9.15;;;;;;;;;;6197555;23;20522;-67
2022/06/17 04:12:16;;;;;;;14.05;8.68;;;;;;;;;;6191954;23;20067;-66
2022/06/17 04:14:50;;;;;;;12.70;9.73;;;;;;;;;;6203584;23;20099;-66
2022/06/17 04:17:31;;;;;;;12.48;10.43;;;;;;;;;;6194519;23;20542;-66
2022/06/17 04:20:07;;;;;;;14.07;10.27;;;;;;;;;;6202674;23;20469;-66
2022/06/17 04:22:35;;;;;;;14.32;10.02;;;;;;;;;;6183767;23;20029;-66
2022/06/17 04:25:01;;;;;;;;;;;;;;;;;;6200993;23;20025;-67
2022/06/17 04:27:56;;;;;;;16.17;9.60;;;;;;;;;;6202493;23;19963;-68
2022/06/17 04:30:17;;;;;;;11.45;9.63;;;;;;;;;;6197671;23;20111;-67
2022/06/17 04:32:44;;;;;;;10.77;9.18;;;;;;;;;;6202415;23;20067;-67
2022/06/17 04:35:13;;;;;;;11.63;9.63;;;;;;;;;;6186569;22;20026;-68
2022/06/17 04:37:40;;;;;;;11.70;9.82;;;;;;;;;;6197082;23;20020;-67
2022/06/17 04:40:14;;;;;;;12.00;9.35;;;;;;;;;;6193513;23;20060;-66
2022/06/17 04:42:42;;;;;;;15.63;11.15;;;;;;;;;;6203182;23;20024;-67
2022/06/17 04:45:19;;;;;;;14.65;9.85;;;;;;;;;;6195236;23;20095;-66
2022/06/17 04:47:46;;;;;;;13.38;11.38;;;;;;;;;;6201245;23;20300;-67
2022/06/17 04:50:16;;;;;;;15.73;10.48;;;;;;;;;;6195417;23;20025;-66
2022/06/17 04:52:44;;;;;;;16.35;10.88;;;;;;;;;;6192106;23;20028;-66
2022/06/17 04:55:15;;;;;;;15.65;10.98;;;;;;;;;;6201439;23;20024;-66
2022/06/17 04:57:42;;;;;;;20.85;10.63;;;;;;;;;;6193142;23;20522;-66
2022/06/17 05:00:16;;;;;;;13.90;10.95;;;;;;;;;;6201900;23;20111;-67
2022/06/17 05:02:42;;;;;;;11.70;10.50;;;;;;;;;;6183954;23;20356;-66
2022/06/17 05:05:11;;;;;;;13.27;11.15;;;;;;;;;;6198815;23;20033;-66
2022/06/17 05:07:41;;;;;;;13.25;11.82;;;;;;;;;;6202573;23;20104;-67
2022/06/17 05:10:30;;;;;;;13.68;10.95;;;;;;;;;;6191047;23;20032;-66
2022/06/17 05:12:59;;;;;;;13.13;11.77;;;;;;;;;;6202483;23;20367;-67
2022/06/17 05:15:26;;;;;;;12.38;10.00;;;;;;;;;;6186303;23;20031;-66
2022/06/17 05:17:54;;;;;;;15.65;10.85;;;;;;;;;;6196190;23;20176;-67
2022/06/17 05:20:21;;;;;;;19.13;11.50;;;;;;;;;;6191361;23;20027;-67
2022/06/17 05:22:54;;;;;;;15.32;11.35;;;;;;;;;;6203080;23;20103;-66
2022/06/17 05:25:23;;;;;;;12.45;10.95;;;;;;;;;;6202081;23;20024;-66
2022/06/17 05:27:49;;;;;;;;;;;;;;;;;;6192474;23;20060;-66
2022/06/17 05:30:15;;;;;;;16.05;9.88;;;;;;;;;;6195078;23;20011;-66
2022/06/17 05:32:44;;;;;;;16.58;8.05;;;;;;;;;;6185474;23;20447;-67
2022/06/17 05:35:11;;;;;;;19.98;9.48;;;;;;;;;;6201860;23;20029;-67
2022/06/17 05:37:37;;;;;;;13.77;8.15;;;;;;;;;;6192723;22;20067;-66
2022/06/17 05:40:05;;;;;;;12.60;8.18;;;;;;;;;;6201235;23;20029;-67
2022/06/17 05:42:31;;;;;;;9.05;6.88;;;;;;;;;;6201498;23;20107;-67
2022/06/17 05:44:58;;;;;;;9.23;6.80;;;;;;;;;;6182934;23;20401;-67
2022/06/17 05:47:24;;;;;;;13.18;7.20;;;;;;;;;;6201937;23;20027;-66
2022/06/17 05:49:50;;;;;;;10.60;6.95;;;;;;;;;;6193217;23;20020;-66
2022/06/17 05:52:18;;;;;;;12.95;7.18;;;;;;;;;;6202218;23;20024;-67
2022/06/17 05:54:45;;;;;;;9.77;6.15;;;;;;;;;;6193671;23;20099;-66
2022/06/17 05:57:11;;;;;;;8.85;6.05;;;;;;;;;;6197213;23;20480;-66
2022/06/17 05:59:41;;;;;;;8.95;6.03;;;;;;;;;;6198014;23;20425;-67
2022/06/17 06:02:09;;;;;;;9.20;5.65;;;;;;;;;;6191640;22;20020;-67
2022/06/17 06:04:37;;;;;;;9.13;5.15;;;;;;;;;;6204040;23;20020;-66
2022/06/17 06:07:03;;;;;;;9.55;4.97;;;;;;;;;;6193886;23;20331;-66
2022/06/17 06:09:29;;;;;;;9.00;5.50;;;;;;;;;;6202267;23;20052;-65
2022/06/17 06:11:56;;;;;;;7.47;4.93;;;;;;;;;;6197101;23;20031;-66
2022/06/17 06:14:22;;;;;;;7.32;5.35;;;;;;;;;;6187148;23;20496;-66
2022/06/17 06:16:49;;;;;;;7.97;5.15;;;;;;;;;;6204512;23;20070;-65
2022/06/17 06:19:15;;;;;;;9.73;4.80;;;;;;;;;;6196460;23;20056;-66
2022/06/17 06:21:41;;;;;;;9.02;5.43;;;;;;;;;;6203693;23;20027;-66
2022/06/17 06:24:08;;;;;;;7.57;4.95;;;;;;;;;;6195149;22;20111;-67
2022/06/17 06:26:34;;;;;;;10.88;5.25;;;;;;;;;;6193459;23;20031;-66
2022/06/17 06:29:06;;;;;;;7.30;4.70;;;;;;;;;;6201915;23;20107;-65
2022/06/17 06:31:34;;;;;;;8.98;4.72;;;;;;;;;;6194645;23;20077;-66
2022/06/17 06:34:01;;;;;;;6.15;3.70;;;;;;;;;;6202392;23;20035;-67
2022/06/17 06:36:27;;;;;;;9.00;4.07;;;;;;;;;;6192820;23;20523;-66
2022/06/17 06:38:53;;;;;;;10.10;4.45;;;;;;;;;;6197092;23;20103;-66
2022/06/17 06:41:21;;;;;;;10.43;4.38;;;;;;;;;;6191054;23;20068;-66
2022/06/17 06:43:51;;;;;;;9.05;4.20;;;;;;;;;;6200562;23;20028;-67
2022/06/17 06:46:18;;;;;;;11.60;4.72;;;;;;;;;;6201172;23;20025;-66
2022/06/17 06:48:48;;;;;;;8.70;4.47;;;;;;;;;;6192185;23;20056;-67
2022/06/17 06:51:14;;;;;;;8.00;4.40;;;;;;;;;;6201138;23;20063;-66
2022/06/17 06:53:40;;;;;;;9.07;4.10;;;;;;;;;;6184690;22;20104;-67
2022/06/17 06:56:07;;;;;;;6.00;4.35;;;;;;;;;;6196614;23;20021;-67
2022/06/17 06:58:33;;;;;;;6.07;3.47;;;;;;;;;;6202837;23;20515;-66
2022/06/17 07:01:00;;;;;;;6.30;3.90;;;;;;;;;;6191638;23;20031;-67
2022/06/17 07:03:27;;;;;;;8.27;4.05;;;;;;;;;;6200579;23;20024;-67
2022/06/17 07:05:55;;;;;;;5.27;3.67;;;;;;;;;;6190652;22;20086;-67
2022/06/17 07:08:23;;;;;;;6.35;3.92;;;;;;;;;;6191785;23;20029;-67
2022/06/17 07:10:50;;;;;;;6.55;3.30;;;;;;;;;;6189435;23;20028;-67
2022/06/17 07:13:16;;;;;;;6.03;3.47;;;;;;;;;;6200762;23;20393;-68
2022/06/17 07:15:44;;;;;;;6.13;3.10;;;;;;;;;;6200966;23;20642;-67
2022/06/17 07:18:14;;;;;;;5.20;2.75;;;;;;;;;;6190804;23;20092;-67
2022/06/17 07:20:42;;;;;;;10.02;3.60;;;;;;;;;;6200870;23;20024;-67
2022/06/17 07:23:22;;;;;;;9.57;3.05;;;;;;;;;;6185822;23;20102;-67
2022/06/17 07:25:49;;;;;;;6.63;3.00;;;;;;;;;;6203581;23;20095;-67
2022/06/17 07:28:22;;;;;;;7.25;3.60;;;;;;;;;;6192947;23;20777;-67
2022/06/17 07:30:50;;;;;;;4.63;2.77;;;;;;;;;;6203285;23;20042;-68
2022/06/17 07:33:17;;;;;;;7.00;3.10;;;;;;;;;;6190028;23;20025;-67
2022/06/17 07:35:45;;;;;;;5.13;3.13;;;;;;;;;;6193838;23;20419;-67
2022/06/17 07:40:57;;;;;;;7.22;3.25;;;;;;;;;;6197793;23;20111;-67
2022/06/17 07:43:24;;;;;;;7.30;3.00;;;;;;;;;;6203654;23;20024;-66
2022/06/17 07:45:50;;;;;;;6.70;3.50;;;;;;;;;;6196359;23;20028;-67
2022/06/17 07:48:18;;;;;;;6.82;3.20;;;;;;;;;;6198281;23;20119;-67
2022/06/17 07:50:44;;;;;;;6.90;3.17;;;;;;;;;;6188052;22;20052;-66
2022/06/17 07:53:11;;;;;;;6.72;3.20;;;;;;;;;;6201901;23;20029;-67
2022/06/17 07:55:38;;;;;;;6.90;3.10;;;;;;;;;;6203071;23;20112;-68
2022/06/17 07:58:04;;;;;;;8.75;3.25;;;;;;;;;;6166223;23;20474;-67
2022/06/17 08:00:32;;;;;;;6.78;2.85;;;;;;;;;;6176034;23;20025;-67
2022/06/17 08:02:59;;;;;;;7.40;3.38;;;;;;;;;;6187074;22;20020;-66
2022/06/17 08:05:25;;;;;;;7.53;3.20;;;;;;;;;;6197695;23;20336;-66
2022/06/17 08:07:53;;;;;;;9.30;3.20;;;;;;;;;;6193416;23;20051;-65
2022/06/17 08:10:21;;;;;;;4.68;3.15;;;;;;;;;;6202161;23;20103;-66
2022/06/17 08:12:47;;;;;;;8.20;3.17;;;;;;;;;;6204172;23;20017;-66
2022/06/17 08:15:14;;;;;;;5.20;3.20;;;;;;;;;;6188872;23;20027;-66
2022/06/17 08:17:40;;;;;;;5.93;3.42;;;;;;;;;;6168298;23;20108;-65
2022/06/17 08:20:21;;;;;;;9.43;3.88;;;;;;;;;;6191902;23;20529;-65
2022/06/17 08:22:48;;;;;;;9.63;4.10;;;;;;;;;;6203353;23;20025;-66
2022/06/17 08:25:14;;;;;;;14.57;4.00;;;;;;;;;;6192726;23;20028;-67
2022/06/17 08:27:42;;;;;;;7.05;3.60;;;;;;;;;;6202479;23;20028;-67
2022/06/17 08:30:09;;;;;;;6.63;3.55;;;;;;;;;;6196008;23;20024;-66
2022/06/17 08:32:53;;;;;;;7.70;3.60;;;;;;;;;;6185904;23;20510;-67
2022/06/17 08:35:21;;;;;;;6.30;3.58;;;;;;;;;;6202403;23;20028;-66
2022/06/17 08:38:00;;;;;;;4.72;2.85;;;;;;;;;;6191941;23;20060;-67
2022/06/17 08:40:38;;;;;;;8.82;3.85;;;;;;;;;;6202553;23;20055;-66
2022/06/17 08:43:19;;;;;;;5.22;3.40;;;;;;;;;;6187956;23;20457;-67
2022/06/17 08:45:48;;;;;;;9.65;3.00;;;;;;;;;;6196671;23;20099;-67
2022/06/17 08:48:17;;;;;;;6.93;3.08;;;;;;;;;;6191835;23;20593;-68
2022/06/17 08:50:47;;;;;;;7.93;3.10;;;;;;;;;;6203183;23;20067;-67
2022/06/17 08:53:26;;;;;;;6.53;3.30;;;;;;;;;;6202100;23;20309;-67
2022/06/17 08:56:16;;;;;;;7.57;3.85;;;;;;;;;;6192548;23;20059;-66
2022/06/17 08:59:01;;;;;;;7.38;3.25;;;;;;;;;;6183832;23;20024;-67
2022/06/17 09:01:46;;;;;;;11.25;3.13;;;;;;;;;;6189695;23;20095;-67
2022/06/17 09:04:15;;;;;;;3.90;2.75;;;;;;;;;;6176262;23;20682;-67
2022/06/17 09:06:51;;;;;;;7.80;3.60;;;;;;;;;;6192639;22;20024;-67
2022/06/17 09:09:24;;;;;;;6.70;2.83;;;;;;;;;;6202342;23;20099;-67
2022/06/17 09:12:02;;;;;;;7.13;3.20;;;;;;;;;;6185706;23;20119;-67
2022/06/17 09:14:42;;;;;;;6.07;2.90;;;;;;;;;;6195849;23;20020;-67
2022/06/17 09:17:27;;;;;;;6.82;2.72;;;;;;;;;;6192403;23;20099;-67
2022/06/17 09:19:56;;;;;;;5.22;2.65;;;;;;;;;;6202929;23;20476;-67
2022/06/17 09:22:25;;;;;;;6.40;2.92;;;;;;;;;;6201182;23;20032;-67
2022/06/17 09:24:54;;;;;;;6.20;3.10;;;;;;;;;;6188447;23;20330;-66
2022/06/17 09:27:26;;;;;;;5.20;2.63;;;;;;;;;;6199861;23;20115;-66
2022/06/17 09:29:56;;;;;;;9.00;3.08;;;;;;;;;;6190990;23;20031;-67
2022/06/17 09:32:25;;;;;;;7.72;2.92;;;;;;;;;;6202133;23;20431;-67
2022/06/17 09:35:13;;;;;;;5.35;2.85;;;;;;;;;;6193221;23;20020;-66
2022/06/17 09:37:43;;;;;;;8.60;3.07;;;;;;;;;;6196417;23;20447;-67
2022/06/17 09:40:13;;;;;;;10.55;3.00;;;;;;;;;;6186636;23;20099;-67
2022/06/17 09:42:44;;;;;;;7.28;3.13;;;;;;;;;;6202228;23;20067;-67
2022/06/17 09:45:14;;;;;;;7.20;2.70;;;;;;;;;;6201824;23;20028;-67
2022/06/17 09:47:51;;;;;;;9.32;3.35;;;;;;;;;;6192278;22;20521;-66
2022/06/17 09:50:21;;;;;;;9.35;3.55;;;;;;;;;;6202288;23;20025;-66
2022/06/17 09:52:54;;;;;;;6.50;2.63;;;;;;;;;;6184682;23;20028;-66
2022/06/17 09:55:40;;;;;;;6.97;2.95;;;;;;;;;;6197899;23;20032;-66
2022/06/17 09:58:10;;;;;;;7.13;2.92;;;;;;;;;;6191784;23;20024;-65
2022/06/17 10:00:48;;;;;;;7.38;2.65;;;;;;;;;;6202577;23;20028;-66
2022/06/17 10:03:25;;;;;;;8.48;2.97;;;;;;;;;;6192435;23;20123;-66
2022/06/17 10:06:09;;;;;;;6.75;3.00;;;;;;;;;;6198054;23;20115;-66
2022/06/17 10:08:36;;;;;;;8.00;2.80;;;;;;;;;;6196307;23;20119;-67
2022/06/17 10:11:26;;;;;;;4.38;2.55;;;;;;;;;;6192355;23;20112;-67
2022/06/17 10:13:52;;;;;;;9.55;2.58;;;;;;;;;;6202145;23;20031;-68
2022/06/17 10:19:19;;;;;;;7.55;2.90;;;;;;;;;;6196303;23;20096;-66
2022/06/17 10:21:53;;;;;;;6.35;2.75;;;;;;;;;;6185664;23;20194;-66
2022/06/17 10:24:38;;;;;;;8.40;3.03;;;;;;;;;;6202530;23;20024;-67
2022/06/17 10:27:20;;;;;;;6.97;2.90;;;;;;;;;;6191987;23;20120;-67
2022/06/17 10:30:12;;;;;;;7.28;2.80;;;;;;;;;;6200960;23;20031;-66
2022/06/17 10:32:44;;;;;;;6.78;3.03;;;;;;;;;;6187518;23;20478;-66
2022/06/17 10:35:17;;;;;;;6.70;3.53;;;;;;;;;;6196817;23;20046;-66
2022/06/17 10:37:44;;;;;;;7.18;3.22;;;;;;;;;;6202252;23;20112;-66
2022/06/17 10:40:21;;;;;;;6.65;3.47;;;;;;;;;;6197346;23;20027;-66
2022/06/17 10:42:49;;;;;;;5.88;3.40;;;;;;;;;;6201136;23;20056;-66
2022/06/17 10:45:16;;;;;;;6.13;3.10;;;;;;;;;;6191567;23;20107;-67
2022/06/17 10:47:53;;;;;;;7.22;3.15;;;;;;;;;;6191735;23;20060;-67
2022/06/17 10:50:22;;;;;;;7.60;2.45;;;;;;;;;;6191187;23;20135;-66
2022/06/17 10:52:57;;;;;;;7.22;2.53;;;;;;;;;;6202954;23;20028;-67
2022/06/17 10:55:27;;;;;;;6.10;2.70;;;;;;;;;;6197234;23;20105;-66
2022/06/17 10:58:12;;;;;;;5.57;2.28;;;;;;;;;;6202989;23;20413;-66
2022/06/17 11:00:44;;;;;;;4.18;2.22;;;;;;;;;;6198339;23;20454;-67
2022/06/17 11:03:22;;;;;;;7.97;2.72;;;;;;;;;;6188856;23;20603;-66
2022/06/17 11:05:54;;;;;;;7.13;2.90;;;;;;;;;;6204323;23;20417;-67
2022/06/17 11:08:22;;;;;;;5.60;2.45;;;;;;;;;;6194311;23;20345;-66
2022/06/17 11:10:53;;;;;;;5.57;2.58;;;;;;;;;;6204699;23;20103;-67
2022/06/17 11:13:20;;;;;;;7.95;2.60;;;;;;;;;;6188640;22;20029;-67
2022/06/17 11:15:50;;;;;;;5.75;2.55;;;;;;;;;;6198533;23;20123;-67
2022/06/17 11:18:21;;;;;;;3.55;2.13;;;;;;;;;;6203147;23;20139;-67
2022/06/17 11:20:54;;;;;;;7.07;2.47;;;;;;;;;;6192367;23;20035;-66
2022/06/17 11:23:30;;;;;;;5.97;2.63;;;;;;;;;;6204370;23;20403;-67
2022/06/17 11:26:09;;;;;;;5.60;2.42;;;;;;;;;;6194331;23;20108;-66
2022/06/17 11:28:37;;;;;;;8.10;3.30;;;;;;;;;;6195845;23;20725;-66
2022/06/17 11:31:05;;;;;;;5.38;2.70;;;;;;;;;;6190152;23;20454;-66
2022/06/17 11:33:40;;;;;;;7.00;2.90;;;;;;;;;;6204228;23;20074;-66
2022/06/17 11:36:17;;;;;;;4.30;2.40;;;;;;;;;;6193367;23;20027;-66
2022/06/17 11:38:44;;;;;;;4.27;2.30;;;;;;;;;;6203664;23;20541;-67
2022/06/17 11:41:21;;;;;;;5.20;2.42;;;;;;;;;;6198187;23;20470;-67
2022/06/17 11:43:48;;;;;;;5.13;2.85;;;;;;;;;;6188177;23;20039;-67
2022/06/17 11:46:16;;;;;;;4.03;2.60;;;;;;;;;;6202988;23;20029;-67
2022/06/17 11:48:47;;;;;;;3.28;2.08;;;;;;;;;;6193627;23;20514;-67
2022/06/17 11:51:16;;;;;;;4.03;2.35;;;;;;;;;;6203674;23;20087;-67
2022/06/17 11:53:53;;;;;;;8.20;3.20;;;;;;;;;;6197473;23;20099;-67
2022/06/17 11:56:38;;;;;;;5.35;3.13;;;;;;;;;;6198127;23;20460;-67
2022/06/17 11:59:10;;;;;;;5.65;2.83;;;;;;;;;;6201882;22;20533;-67
2022/06/17 12:01:37;;;;;;;6.38;2.97;;;;;;;;;;6203316;23;20107;-67
2022/06/17 12:04:04;;;;;;;4.68;3.22;;;;;;;;;;6204132;23;20031;-67
2022/06/17 12:06:41;;;;;;;5.10;2.50;;;;;;;;;;6193759;23;20107;-67
2022/06/17 12:09:12;;;;;;;6.95;2.78;;;;;;;;;;6194803;23;20236;-67
2022/06/17 12:11:50;;;;;;;4.00;2.65;;;;;;;;;;6193695;23;20465;-67
2022/06/17 12:14:29;;;;;;;4.80;3.13;;;;;;;;;;6203865;23;20124;-67
2022/06/17 12:16:56;;;;;;;4.93;2.60;;;;;;;;;;6194446;23;20079;-67
2022/06/17 12:19:43;;;;;;;5.55;3.22;;;;;;;;;;6202780;23;20025;-68
2022/06/17 12:22:18;;;;;;;5.85;3.22;;;;;;;;;;6196663;23;20415;-67
2022/06/17 12:24:57;;;;;;;5.95;2.88;;;;;;;;;;6194423;23;20529;-67
2022/06/17 12:27:40;;;;;;;6.35;3.40;;;;;;;;;;6202534;23;20162;-67
2022/06/17 12:30:41;;;;;;;11.07;3.78;;;;;;;;;;6192028;22;20025;-67
2022/06/17 12:33:16;;;;;;;9.63;3.65;;;;;;;;;;6202976;23;20466;-66
2022/06/17 12:35:45;;;;;;;8.75;3.13;;;;;;;;;;6186839;23;20462;-67
2022/06/17 12:38:30;;;;;;;7.13;3.13;;;;;;;;;;6196115;23;20021;-68
2022/06/17 12:41:00;;;;;;;6.32;3.35;;;;;;;;;;6193273;22;20020;-66
2022/06/17 12:43:45;;;;;;;7.72;3.03;;;;;;;;;;6202488;23;20062;-66
2022/06/17 12:46:14;;;;;;;8.30;3.20;;;;;;;;;;6192250;23;20028;-66
2022/06/17 12:48:50;;;;;;;6.03;4.32;;;;;;;;;;6198656;23;20304;-66
2022/06/17 12:54:06;;;;;;;5.43;2.55;;;;;;;;;;6201905;23;20103;-67
2022/06/17 12:56:35;;;;;;;5.32;3.15;;;;;;;;;;6203139;23;20035;-67
2022/06/17 12:59:31;;;;;;;7.07;3.70;;;;;;;;;;6193024;22;20107;-67
2022/06/17 13:02:05;;;;;;;8.00;3.22;;;;;;;;;;6182465;23;20513;-66
2022/06/17 13:04:51;;;;;;;5.18;2.85;;;;;;;;;;6182844;22;20025;-66
2022/06/17 13:07:18;;;;;;;6.85;3.78;;;;;;;;;;6155534;23;20143;-66
2022/06/17 13:10:39;;;;;;;5.00;2.80;;;;;;;;;;6196552;22;20504;-66
2022/06/17 13:12:56;;;;;;;7.13;3.78;;;;;;;;;;6201252;23;20020;-66
2022/06/17 13:15:25;;;;;;;5.75;3.95;;;;;;;;;;6192518;23;20120;-66
2022/06/17 13:17:56;;;;;;;6.97;3.63;;;;;;;;;;6197176;23;20032;-67
2022/06/17 13:20:26;;;;;;;6.15;3.30;;;;;;;;;;6195809;23;20020;-66
2022/06/17 13:22:59;;;;;;;7.75;4.50;;;;;;;;;;6195096;23;20059;-67
2022/06/17 13:25:40;;;;;;;9.48;4.40;;;;;;;;;;6203292;23;20021;-66
2022/06/17 13:28:06;;;;;;;7.90;3.78;;;;;;;;;;6196109;23;20020;-66
2022/06/17 13:30:36;;;;;;;9.45;4.88;;;;;;;;;;6200176;23;20024;-66
2022/06/17 13:33:10;;;;;;;9.38;3.97;;;;;;;;;;6187086;23;20021;-66
2022/06/17 13:35:39;;;;;;;8.20;5.07;;;;;;;;;;6203515;23;20102;-67
2022/06/17 13:38:26;;;;;;;7.35;4.45;;;;;;;;;;6195755;23;20020;-66
2022/06/17 13:41:10;;;;;;;9.60;4.63;;;;;;;;;;6202525;23;20031;-66
2022/06/17 13:43:42;;;;;;;8.43;4.20;;;;;;;;;;6203781;23;20031;-67
2022/06/17 13:46:12;;;;;;;8.25;3.45;;;;;;;;;;6189652;23;20107;-67
2022/06/17 13:48:59;;;;;;;9.80;3.63;;;;;;;;;;6202116;23;20034;-67
2022/06/17 13:51:32;;;;;;;3.58;2.53;;;;;;;;;;6192167;23;20029;-67
2022/06/17 13:54:07;;;;;;;7.97;3.20;;;;;;;;;;6202859;23;20108;-67
2022/06/17 13:56:37;;;;;;;8.40;3.85;;;;;;;;;;6190844;22;20640;-67
2022/06/17 13:59:05;;;;;;;4.30;2.47;;;;;;;;;;6193938;23;20111;-67
2022/06/17 14:01:37;;;;;;;5.68;2.33;;;;;;;;;;6192331;23;20052;-68
2022/06/17 14:04:31;;;;;;;5.32;2.20;;;;;;;;;;6174831;23;20115;-67
2022/06/17 14:06:58;;;;;;;6.05;2.30;;;;;;;;;;6199281;23;20025;-67
2022/06/17 14:09:34;;;;;;;6.22;2.13;;;;;;;;;;6193242;23;20115;-67
2022/06/17 14:12:01;;;;;;;4.43;2.17;;;;;;;;;;6195574;23;20028;-67
2022/06/17 14:14:31;;;;;;;4.72;2.15;;;;;;;;;;6185055;23;20029;-68
2022/06/17 14:16:57;;;;;;;5.20;1.90;;;;;;;;;;6201878;23;20031;-67
2022/06/17 14:19:27;;;;;;;4.95;2.17;;;;;;;;;;6190905;23;20265;-67
2022/06/17 14:21:55;;;;;;;3.72;1.77;;;;;;;;;;6202576;23;20059;-67
2022/06/17 14:24:40;;;;;;;4.43;1.70;;;;;;;;;;6197632;23;20443;-67
2022/06/17 14:27:08;;;;;;;7.57;1.95;;;;;;;;;;6194025;23;20103;-67
2022/06/17 14:29:34;;;;;;;5.47;2.22;;;;;;;;;;6200845;23;20444;-67
2022/06/17 14:32:15;;;;;;;5.07;1.80;;;;;;;;;;6191518;23;20030;-67
2022/06/17 14:34:50;;;;;;;5.20;1.90;;;;;;;;;;6202695;23;20024;-67
2022/06/17 14:37:31;;;;;;;3.42;1.73;;;;;;;;;;6192059;23;20119;-67
2022/06/17 14:40:18;;;;;;;5.35;1.92;;;;;;;;;;6194371;23;20024;-67
2022/06/17 14:42:44;;;;;;;;;;;;;;;;;;6190897;23;20365;-67
2022/06/17 14:45:30;;;;;;;5.32;2.00;;;;;;;;;;6201347;23;20007;-67
2022/06/17 14:48:11;;;;;;;4.80;1.80;;;;;;;;;;6196814;23;20036;-67
2022/06/17 14:50:41;;;;;;;4.65;1.63;;;;;;;;;;6201311;23;20210;-66
2022/06/17 14:53:10;;;;;;;5.30;1.80;;;;;;;;;;6196104;23;20518;-67
2022/06/17 14:55:39;;;;;;;5.10;1.85;;;;;;;;;;6161082;23;20107;-69
2022/06/17 14:58:06;;;;;;;4.00;1.58;;;;;;;;;;6199887;23;20025;-67
2022/06/17 15:00:42;;;;;;;2.88;1.73;;;;;;;;;;6164459;23;20024;-67
2022/06/17 15:03:21;;;;;;;6.15;1.50;;;;;;;;;;6195574;23;20687;-68
2022/06/17 15:05:48;;;;;;;4.00;1.52;;;;;;;;;;6192703;23;20024;-66
2022/06/17 15:08:17;;;;;;;2.83;1.60;;;;;;;;;;6192516;23;20025;-66
2022/06/17 15:11:07;;;;;;;2.85;1.50;;;;;;;;;;6202542;23;20031;-66
2022/06/17 15:16:23;;;;;;;5.35;1.60;;;;;;;;;;6202506;23;20028;-67
2022/06/17 15:18:50;;;;;;;3.25;1.80;;;;;;;;;;6195839;22;20020;-73
2022/06/17 15:21:21;;;;;;;3.03;1.70;;;;;;;;;;6195013;23;20528;-67